Portada
METAR-TAF:

METAR-TAF

Aeroports :

Kassel, Alemanya

latitud: 51-24N, longitud: 009-23E, altitud: 277 m

Observació

L'informe es va fer fa 2 hores i 19 minuts, a les 19:50 UTC
Vent 2 kt del Est/Sud-Est
Temperatura 20°C
Humitat 60%
Pressió 1021 hPa
Visibilitat 10 km o més
sense núvols per sota de 1500 mi sense presència de cumulonimbus.

METAR: EDVK 241950Z 11002KT CAVOK 20/12 Q1021

Hora: 00:09 (22:09 UTC)

Pronòstic

L'informe es va fer fa 2 hores i 9 minuts, a les 20:00 UTC
Pronòstic vàlid del 24 a les 21 UTC al 25 a les 03 UTC
Vent 3 kt amb direcció variable
Visibilitat 10 km o més
sense núvols per sota de 1500 mi sense presència de cumulonimbus.

TAF: EDVK 242000Z 2421/2503 VRB03KT CAVOK

Observacions i pronòstics meteorològics de més de 4000 aeroports (METAR i TAF).

Les estacions disponibles són els punts grocs i vermells al mapa.

Posi el ratolí al punt desitjat per veure el nom de l'estació.

Feu clic per veure les observacions i els pronòstics meteorològics.

Per canviar el mapa: feu clic els botons verds amb una creu de color negre per apropar; al botó verd amb un guió per allunyar la imatge; o en les fletxes verdes per a mapes adjacents.


METAR-TAF: